createdAt,value
2023-03-20T00:01:56.690Z,16.90
2023-03-20T00:03:58.286Z,16.60
2023-03-20T00:05:59.816Z,17.70
2023-03-20T00:08:01.920Z,16.35
2023-03-20T00:10:03.553Z,15.52
2023-03-20T00:12:05.678Z,16.30
2023-03-20T00:14:10.229Z,16.35
2023-03-20T00:16:12.328Z,15.80
2023-03-20T00:18:19.950Z,17.48
2023-03-20T00:20:22.276Z,17.75
2023-03-20T00:22:23.831Z,17.63
2023-03-20T00:24:25.762Z,17.88
2023-03-20T00:26:33.328Z,18.00
2023-03-20T00:28:40.831Z,18.67
2023-03-20T00:30:42.329Z,18.52
2023-03-20T00:32:43.900Z,17.63
2023-03-20T00:34:45.785Z,17.65
2023-03-20T00:36:47.605Z,18.33
2023-03-20T00:38:49.588Z,19.00
2023-03-20T00:40:51.288Z,18.27
2023-03-20T00:42:59.209Z,17.70
2023-03-20T00:45:02.402Z,18.52
2023-03-20T00:47:18.914Z,19.33
2023-03-20T00:49:27.953Z,18.20
2023-03-20T00:51:29.729Z,19.05
2023-03-20T00:53:31.208Z,18.08
2023-03-20T00:55:33.031Z,19.15
2023-03-20T00:57:40.770Z,18.20
2023-03-20T00:59:52.593Z,18.20
2023-03-20T01:01:54.132Z,17.70
2023-03-20T01:03:55.609Z,18.15
2023-03-20T01:05:57.546Z,17.90
2023-03-20T01:07:59.377Z,17.05
2023-03-20T01:10:01.191Z,17.05
2023-03-20T01:12:03.691Z,15.98
2023-03-20T01:14:13.470Z,14.60
2023-03-20T01:16:26.214Z,13.20
2023-03-20T01:18:28.003Z,12.50
2023-03-20T01:20:30.931Z,12.38
2023-03-20T01:22:32.386Z,11.73
2023-03-20T01:24:33.885Z,12.00
2023-03-20T01:26:44.644Z,11.52
2023-03-20T01:28:46.068Z,10.75
2023-03-20T01:30:48.539Z,11.48
2023-03-20T01:32:50.914Z,10.60
2023-03-20T01:34:53.250Z,9.70
2023-03-20T01:36:57.565Z,8.85
2023-03-20T01:38:59.397Z,8.05
2023-03-20T01:41:12.072Z,6.88
2023-03-20T01:43:17.100Z,7.20
2023-03-20T01:45:21.819Z,6.43
2023-03-20T01:47:24.876Z,6.93
2023-03-20T01:49:26.493Z,6.70
2023-03-20T01:51:36.173Z,5.55
2023-03-20T01:53:37.759Z,5.78
2023-03-20T01:55:42.086Z,6.20
2023-03-20T01:57:44.145Z,6.00
2023-03-20T01:59:45.643Z,5.68
2023-03-20T02:01:47.373Z,6.00
2023-03-20T02:03:50.537Z,6.07
2023-03-20T02:05:52.229Z,5.70
2023-03-20T02:08:18.587Z,5.40
2023-03-20T02:10:20.655Z,5.53
2023-03-20T02:12:22.682Z,5.95
2023-03-20T02:14:24.293Z,6.00
2023-03-20T02:16:26.561Z,6.00
2023-03-20T02:18:28.726Z,6.13
2023-03-20T02:20:56.939Z,5.82
2023-03-20T02:23:36.262Z,5.38
2023-03-20T02:26:02.585Z,5.30
2023-03-20T02:28:16.301Z,5.55
2023-03-20T02:30:36.979Z,5.65
2023-03-20T02:33:29.962Z,5.90
2023-03-20T02:36:04.901Z,5.55
2023-03-20T02:38:26.653Z,4.55
2023-03-20T02:40:34.500Z,5.07
2023-03-20T02:42:56.361Z,4.77
2023-03-20T02:45:43.044Z,4.50
2023-03-20T02:47:54.365Z,4.63
2023-03-20T02:50:13.826Z,4.55
2023-03-20T02:52:30.348Z,4.40
2023-03-20T02:54:56.246Z,4.30
2023-03-20T02:57:29.941Z,4.32
2023-03-20T02:59:40.732Z,4.15
2023-03-20T03:01:48.736Z,4.13
2023-03-20T03:04:02.149Z,4.45
2023-03-20T03:06:12.613Z,4.45
2023-03-20T03:08:19.612Z,4.57
2023-03-20T03:10:27.277Z,4.50
2023-03-20T03:12:33.141Z,4.00
2023-03-20T03:14:46.182Z,3.85
2023-03-20T03:16:50.941Z,4.30
2023-03-20T03:19:01.677Z,4.30
2023-03-20T03:21:05.700Z,4.45
2023-03-20T03:23:07.435Z,4.00
2023-03-20T03:25:12.370Z,4.50
2023-03-20T03:27:22.923Z,4.07
2023-03-20T03:29:28.012Z,4.55
2023-03-20T03:31:31.813Z,4.03
2023-03-20T03:33:37.138Z,4.22
2023-03-20T03:35:40.204Z,4.25
2023-03-20T03:37:47.549Z,4.32
2023-03-20T03:40:05.405Z,4.10
2023-03-20T03:42:19.177Z,4.47
2023-03-20T03:44:28.226Z,4.47
2023-03-20T03:46:57.317Z,4.80
2023-03-20T03:48:59.757Z,5.47
2023-03-20T03:51:07.070Z,5.30
2023-03-20T03:53:12.561Z,5.55
2023-03-20T03:55:21.431Z,5.35
2023-03-20T03:57:30.709Z,6.57
2023-03-20T03:59:43.424Z,5.85
2023-03-20T04:01:47.657Z,5.65
2023-03-20T04:03:52.428Z,6.38
2023-03-20T04:05:56.950Z,5.57
2023-03-20T04:08:01.173Z,6.03
2023-03-20T04:10:03.478Z,6.25
2023-03-20T04:12:05.373Z,6.18
2023-03-20T04:14:06.930Z,6.03
2023-03-20T04:16:14.269Z,6.85
2023-03-20T04:18:18.054Z,6.53
2023-03-20T04:20:20.235Z,6.03
2023-03-20T04:22:21.798Z,6.07
2023-03-20T04:24:23.418Z,6.82
2023-03-20T04:26:24.890Z,6.57
2023-03-20T04:28:26.455Z,6.65
2023-03-20T04:30:27.914Z,6.40
2023-03-20T04:32:29.358Z,6.80
2023-03-20T04:34:30.808Z,6.30
2023-03-20T04:36:32.266Z,5.78
2023-03-20T04:38:33.781Z,6.43
2023-03-20T04:40:35.505Z,6.22
2023-03-20T04:42:36.972Z,7.10
2023-03-20T04:44:38.428Z,6.70
2023-03-20T04:46:39.880Z,6.65
2023-03-20T04:48:41.323Z,7.60
2023-03-20T04:50:42.870Z,7.05
2023-03-20T04:52:44.335Z,7.22
2023-03-20T04:54:45.918Z,7.13
2023-03-20T04:56:47.515Z,7.13
2023-03-20T04:58:49.004Z,8.48
2023-03-20T05:00:50.751Z,7.30
2023-03-20T05:02:52.230Z,7.78
2023-03-20T05:04:53.719Z,7.78
2023-03-20T05:06:55.607Z,7.78
2023-03-20T05:09:05.234Z,7.35
2023-03-20T05:11:08.228Z,6.75
2023-03-20T05:13:09.691Z,7.93
2023-03-20T05:15:17.019Z,8.30
2023-03-20T05:17:21.626Z,8.10
2023-03-20T05:19:23.128Z,8.20
2023-03-20T05:21:24.867Z,8.45
2023-03-20T05:23:26.330Z,7.68
2023-03-20T05:25:27.826Z,7.70
2023-03-20T05:27:29.328Z,7.93
2023-03-20T05:29:31.033Z,8.45
2023-03-20T05:31:32.821Z,8.40
2023-03-20T05:33:36.812Z,8.23
2023-03-20T05:35:39.816Z,8.38
2023-03-20T05:37:41.468Z,7.85
2023-03-20T05:39:43.069Z,8.57
2023-03-20T05:41:45.896Z,8.57
2023-03-20T05:43:47.474Z,8.02
2023-03-20T05:45:48.994Z,7.90
2023-03-20T05:47:50.596Z,7.22
2023-03-20T05:49:52.128Z,8.30
2023-03-20T05:51:53.614Z,7.80
2023-03-20T05:53:55.182Z,8.45
2023-03-20T05:55:56.846Z,8.23
2023-03-20T05:57:58.376Z,8.40
2023-03-20T05:59:59.828Z,8.20
2023-03-20T06:02:01.280Z,8.00
2023-03-20T06:04:03.202Z,8.10
2023-03-20T06:06:05.234Z,7.82
2023-03-20T06:08:07.040Z,7.95
2023-03-20T06:10:09.301Z,7.60
2023-03-20T06:12:11.093Z,8.02
2023-03-20T06:14:12.571Z,7.75
2023-03-20T06:16:14.110Z,6.95
2023-03-20T06:18:15.639Z,7.20
2023-03-20T06:20:17.792Z,7.28
2023-03-20T06:22:19.325Z,6.35
2023-03-20T06:24:20.890Z,7.30
2023-03-20T06:26:22.367Z,7.03
2023-03-20T06:28:23.828Z,6.68
2023-03-20T06:30:25.259Z,6.78
2023-03-20T06:32:27.529Z,7.18
2023-03-20T06:34:30.200Z,6.60
2023-03-20T06:36:32.222Z,6.85
2023-03-20T06:38:33.768Z,6.90
2023-03-20T06:40:36.174Z,6.72
2023-03-20T06:42:37.631Z,6.18
2023-03-20T06:44:39.817Z,6.30
2023-03-20T06:46:41.393Z,6.53
2023-03-20T06:48:42.938Z,5.88
2023-03-20T06:50:46.165Z,6.53
2023-03-20T06:52:48.425Z,6.80
2023-03-20T06:54:51.268Z,6.07
2023-03-20T06:56:52.900Z,6.60
2023-03-20T06:58:54.341Z,6.68
2023-03-20T07:00:55.797Z,6.88
2023-03-20T07:02:57.291Z,6.68
2023-03-20T07:04:58.899Z,7.05
2023-03-20T07:07:00.594Z,7.40
2023-03-20T07:09:02.223Z,6.63
2023-03-20T07:11:04.455Z,7.43
2023-03-20T07:13:06.177Z,6.60
2023-03-20T07:15:07.847Z,6.15
2023-03-20T07:17:10.485Z,6.60
2023-03-20T07:19:13.471Z,6.05
2023-03-20T07:21:21.455Z,6.40
2023-03-20T07:23:22.940Z,6.25
2023-03-20T07:25:39.325Z,5.90
2023-03-20T07:27:50.209Z,6.63
2023-03-20T07:29:52.305Z,6.25
2023-03-20T07:31:53.827Z,5.97
2023-03-20T07:33:55.789Z,6.60
2023-03-20T07:35:57.565Z,6.53
2023-03-20T07:37:59.214Z,6.43
2023-03-20T07:40:01.075Z,6.35
2023-03-20T07:42:02.547Z,6.28
2023-03-20T07:44:04.052Z,6.40
2023-03-20T07:46:07.819Z,6.30
2023-03-20T07:48:09.357Z,6.30
2023-03-20T07:50:11.345Z,7.28
2023-03-20T07:52:12.788Z,7.00
2023-03-20T07:54:15.226Z,6.30
2023-03-20T07:56:16.671Z,6.63
2023-03-20T07:58:18.158Z,6.90
2023-03-20T08:00:20.124Z,6.00
2023-03-20T08:02:21.741Z,6.45
2023-03-20T08:04:23.389Z,6.63
2023-03-20T08:06:25.039Z,6.38
2023-03-20T08:08:26.617Z,5.70
2023-03-20T08:10:28.385Z,6.32
2023-03-20T08:12:29.971Z,5.78
2023-03-20T08:14:31.562Z,6.22
2023-03-20T08:16:33.179Z,5.85
2023-03-20T08:18:34.792Z,6.22
2023-03-20T08:20:36.342Z,5.85
2023-03-20T08:22:37.895Z,7.15
2023-03-20T08:24:39.376Z,6.10
2023-03-20T08:26:41.024Z,5.72
2023-03-20T08:28:47.809Z,6.32
2023-03-20T08:30:49.942Z,5.95
2023-03-20T08:32:51.513Z,5.78
2023-03-20T08:34:55.062Z,5.75
2023-03-20T08:36:56.525Z,6.57
2023-03-20T08:38:57.985Z,6.30
2023-03-20T08:40:59.603Z,6.63
2023-03-20T08:43:01.119Z,5.65
2023-03-20T08:45:02.715Z,7.03
2023-03-20T08:47:05.473Z,6.30
2023-03-20T08:49:07.278Z,6.05
2023-03-20T08:51:09.157Z,6.57
2023-03-20T08:53:11.322Z,5.85
2023-03-20T08:55:14.843Z,6.15
2023-03-20T08:57:16.329Z,5.43
2023-03-20T08:59:19.276Z,5.75
2023-03-20T09:01:20.917Z,5.90
2023-03-20T09:03:22.506Z,6.10
2023-03-20T09:05:24.067Z,5.78
2023-03-20T09:07:25.568Z,6.40
2023-03-20T09:09:29.432Z,6.68
2023-03-20T09:11:32.190Z,6.75
2023-03-20T09:13:33.879Z,5.63
2023-03-20T09:15:36.139Z,5.10
2023-03-20T09:17:37.786Z,6.00
2023-03-20T09:19:42.529Z,6.45
2023-03-20T09:21:44.037Z,6.30
2023-03-20T09:23:45.699Z,6.55
2023-03-20T09:25:47.608Z,6.30
2023-03-20T09:27:55.379Z,5.82
2023-03-20T09:29:56.857Z,5.55
2023-03-20T09:31:58.424Z,5.63
2023-03-20T09:34:00.134Z,5.57
2023-03-20T09:36:01.967Z,5.72
2023-03-20T09:38:03.750Z,5.55
2023-03-20T09:40:05.805Z,5.50
2023-03-20T09:42:26.054Z,6.10
2023-03-20T09:44:49.065Z,5.55
2023-03-20T09:47:18.338Z,5.75
2023-03-20T09:49:39.225Z,4.60
2023-03-20T09:52:03.145Z,5.25
2023-03-20T09:54:12.008Z,5.18
2023-03-20T09:56:22.329Z,4.63
2023-03-20T09:58:23.743Z,5.10
2023-03-20T10:00:28.655Z,4.55
2023-03-20T10:02:40.794Z,4.43
2023-03-20T10:04:44.072Z,3.85
2023-03-20T10:06:46.685Z,5.03
2023-03-20T10:08:48.400Z,4.53
2023-03-20T10:11:00.663Z,4.60
2023-03-20T10:13:35.476Z,4.57
2023-03-20T10:16:06.237Z,4.03
2023-03-20T10:18:13.893Z,4.75
2023-03-20T10:20:35.628Z,3.67
2023-03-20T10:22:48.040Z,4.60
2023-03-20T10:25:01.999Z,3.88
2023-03-20T10:27:18.008Z,3.78
2023-03-20T10:29:40.949Z,3.33
2023-03-20T10:32:15.618Z,4.25
2023-03-20T10:34:26.231Z,3.22
2023-03-20T10:36:52.565Z,3.45
2023-03-20T10:39:00.694Z,3.40
2023-03-20T10:41:04.408Z,3.03
2023-03-20T10:43:43.481Z,3.60
2023-03-20T10:46:02.877Z,3.67
2023-03-20T10:48:13.989Z,3.25
2023-03-20T10:50:18.881Z,3.97
2023-03-20T10:52:29.071Z,3.45
2023-03-20T10:54:35.364Z,3.92
2023-03-20T10:56:43.347Z,3.08
2023-03-20T10:58:49.313Z,3.88
2023-03-20T11:00:51.092Z,3.25
2023-03-20T11:02:53.154Z,3.30
2023-03-20T11:04:54.623Z,3.30
2023-03-20T11:07:03.693Z,3.25
2023-03-20T11:09:19.123Z,3.50
2023-03-20T11:11:26.652Z,3.65
2023-03-20T11:13:41.596Z,3.13
2023-03-20T11:15:43.586Z,3.53
2023-03-20T11:17:55.604Z,3.20
2023-03-20T11:20:05.237Z,2.97
2023-03-20T11:22:24.407Z,3.13
2023-03-20T11:24:46.094Z,2.95
2023-03-20T11:26:47.693Z,3.72
2023-03-20T11:28:52.837Z,3.70
2023-03-20T11:31:04.492Z,3.60
2023-03-20T11:33:08.605Z,3.40
2023-03-20T11:35:18.263Z,3.75
2023-03-20T11:37:46.728Z,3.17
2023-03-20T11:42:02.174Z,3.47
2023-03-20T11:44:03.638Z,3.75
2023-03-20T11:46:13.378Z,3.53
2023-03-20T11:48:19.288Z,3.88
2023-03-20T11:50:27.084Z,3.53
2023-03-20T11:52:34.931Z,3.88
2023-03-20T11:54:36.900Z,3.97
2023-03-20T11:56:38.532Z,3.67
2023-03-20T11:59:03.508Z,4.00
2023-03-20T12:01:08.423Z,4.65
2023-03-20T12:03:44.986Z,3.70
2023-03-20T12:05:46.528Z,3.75
2023-03-20T12:07:52.140Z,4.03
2023-03-20T12:09:58.790Z,3.88
2023-03-20T12:12:10.227Z,3.85
2023-03-20T12:14:19.117Z,3.83
2023-03-20T12:16:25.204Z,3.55
2023-03-20T12:18:34.835Z,4.07
2023-03-20T12:20:36.864Z,4.15
2023-03-20T12:22:49.384Z,4.10
2023-03-20T12:25:15.246Z,4.15
2023-03-20T12:27:40.084Z,4.75
2023-03-20T12:29:50.182Z,4.72
2023-03-20T12:32:08.680Z,4.15
2023-03-20T12:34:16.756Z,4.32
2023-03-20T12:36:27.012Z,4.95
2023-03-20T12:38:31.638Z,4.20
2023-03-20T12:40:43.914Z,4.30
2023-03-20T12:43:04.966Z,4.07
2023-03-20T12:45:11.252Z,4.15
2023-03-20T12:47:24.513Z,3.85
2023-03-20T12:49:51.939Z,4.18
2023-03-20T12:52:12.308Z,4.28
2023-03-20T12:54:38.668Z,3.80
2023-03-20T12:57:04.918Z,4.53
2023-03-20T12:59:17.067Z,4.30
2023-03-20T13:01:41.504Z,4.22
2023-03-20T13:03:55.292Z,4.47
2023-03-20T13:06:08.968Z,4.38
2023-03-20T13:08:19.254Z,4.78
2023-03-20T13:10:32.020Z,3.97
2023-03-20T13:13:05.657Z,4.13
2023-03-20T13:15:25.467Z,4.00
2023-03-20T13:17:57.785Z,4.07
2023-03-20T13:20:21.302Z,4.05
2023-03-20T13:22:30.501Z,4.10
2023-03-20T13:24:48.058Z,3.95
2023-03-20T13:27:11.219Z,4.40
2023-03-20T13:29:34.661Z,4.18
2023-03-20T13:31:52.498Z,4.40
2023-03-20T13:34:03.298Z,4.50
2023-03-20T13:36:31.293Z,4.38
2023-03-20T13:38:37.742Z,4.35
2023-03-20T13:40:44.151Z,4.05
2023-03-20T13:43:00.824Z,4.32
2023-03-20T13:45:41.978Z,4.38
2023-03-20T13:47:46.812Z,4.57
2023-03-20T13:50:08.835Z,4.35
2023-03-20T13:52:23.363Z,4.15
2023-03-20T13:54:35.717Z,3.97
2023-03-20T13:56:55.651Z,4.00
2023-03-20T13:59:06.600Z,3.83
2023-03-20T14:01:47.328Z,3.95
2023-03-20T14:03:49.929Z,4.18
2023-03-20T14:05:51.725Z,3.67
2023-03-20T14:07:58.210Z,4.13
2023-03-20T14:10:22.120Z,4.30
2023-03-20T14:12:27.475Z,4.18
2023-03-20T14:14:40.879Z,4.10
2023-03-20T14:16:42.891Z,3.50
2023-03-20T14:18:45.679Z,3.92
2023-03-20T14:20:57.849Z,3.65
2023-03-20T14:22:59.572Z,4.32
2023-03-20T14:25:08.042Z,3.50
2023-03-20T14:27:18.199Z,3.60
2023-03-20T14:29:30.569Z,3.55
2023-03-20T14:31:37.692Z,3.50
2023-03-20T14:33:44.562Z,3.55
2023-03-20T14:35:50.354Z,3.60
2023-03-20T14:38:10.293Z,3.58
2023-03-20T14:40:19.149Z,3.10
2023-03-20T14:42:40.072Z,3.35
2023-03-20T14:44:47.631Z,4.30
2023-03-20T14:47:27.294Z,3.17
2023-03-20T14:49:48.000Z,3.10
2023-03-20T14:51:53.465Z,3.60
2023-03-20T14:53:57.483Z,3.13
2023-03-20T14:55:59.722Z,3.65
2023-03-20T14:58:25.357Z,4.60
2023-03-20T15:00:30.854Z,3.67
2023-03-20T15:02:36.367Z,3.65
2023-03-20T15:04:40.821Z,3.80
2023-03-20T15:06:47.258Z,3.92
2023-03-20T15:09:07.385Z,4.35
2023-03-20T15:11:11.965Z,3.60
2023-03-20T15:13:15.219Z,4.28
2023-03-20T15:15:31.612Z,4.30
2023-03-20T15:17:43.993Z,3.90
2023-03-20T15:19:45.629Z,3.47
2023-03-20T15:21:48.616Z,3.80
2023-03-20T15:23:50.691Z,3.95
2023-03-20T15:25:52.547Z,3.75
2023-03-20T15:27:55.252Z,4.03
2023-03-20T15:29:57.642Z,3.80
2023-03-20T15:32:15.650Z,4.15
2023-03-20T15:34:27.060Z,4.28
2023-03-20T15:36:30.167Z,3.47
2023-03-20T15:38:34.791Z,5.03
2023-03-20T15:40:50.035Z,4.40
2023-03-20T15:42:54.486Z,3.63
2023-03-20T15:44:56.730Z,3.65
2023-03-20T15:46:58.204Z,4.22
2023-03-20T15:49:00.303Z,3.38
2023-03-20T15:51:05.067Z,3.63
2023-03-20T15:53:11.188Z,3.47
2023-03-20T15:55:17.820Z,3.50
2023-03-20T15:57:25.445Z,3.50
2023-03-20T15:59:30.769Z,3.28
2023-03-20T16:01:32.948Z,3.25
2023-03-20T16:03:38.081Z,2.97
2023-03-20T16:05:44.213Z,3.85
2023-03-20T16:07:45.852Z,3.50
2023-03-20T16:09:47.938Z,3.00
2023-03-20T16:11:59.880Z,3.10
2023-03-20T16:14:02.165Z,3.30
2023-03-20T16:16:05.088Z,3.50
2023-03-20T16:18:07.377Z,3.20
2023-03-20T16:20:14.753Z,3.70
2023-03-20T16:22:27.920Z,4.38
2023-03-20T16:24:35.434Z,3.22
2023-03-20T16:26:40.637Z,3.47
2023-03-20T16:28:45.409Z,3.10
2023-03-20T16:30:46.888Z,3.35
2023-03-20T16:32:55.018Z,2.90
2023-03-20T16:34:58.181Z,2.72
2023-03-20T16:37:02.098Z,2.85
2023-03-20T16:39:19.694Z,3.20
2023-03-20T16:41:38.495Z,3.20
2023-03-20T16:43:40.141Z,3.42
2023-03-20T16:45:45.589Z,3.40
2023-03-20T16:47:48.800Z,3.33
2023-03-20T16:50:11.676Z,3.00
2023-03-20T16:52:15.881Z,3.22
2023-03-20T16:54:21.162Z,3.22
2023-03-20T16:56:28.952Z,3.15
2023-03-20T16:58:33.195Z,3.50
2023-03-20T17:00:50.894Z,2.90
2023-03-20T17:03:01.112Z,3.20
2023-03-20T17:05:06.822Z,3.63
2023-03-20T17:07:13.681Z,3.30
2023-03-20T17:09:24.675Z,3.08
2023-03-20T17:11:32.944Z,2.63
2023-03-20T17:13:34.408Z,2.60
2023-03-20T17:15:35.946Z,2.80
2023-03-20T17:17:37.431Z,2.72
2023-03-20T17:19:38.930Z,2.90
2023-03-20T17:21:41.217Z,2.85
2023-03-20T17:23:42.851Z,3.53
2023-03-20T17:25:44.487Z,3.58
2023-03-20T17:27:46.948Z,3.03
2023-03-20T17:29:51.626Z,3.17
2023-03-20T17:31:53.252Z,3.80
2023-03-20T17:33:54.854Z,2.92
2023-03-20T17:35:57.500Z,2.80
2023-03-20T17:37:59.518Z,3.58
2023-03-20T17:40:01.043Z,2.90
2023-03-20T17:42:03.140Z,2.97
2023-03-20T17:44:04.690Z,2.70
2023-03-20T17:46:06.822Z,3.05
2023-03-20T17:48:18.174Z,2.72
2023-03-20T17:50:25.364Z,3.05
2023-03-20T17:52:28.114Z,3.22
2023-03-20T17:54:29.598Z,3.10
2023-03-20T17:56:32.701Z,3.60
2023-03-20T17:58:34.169Z,3.13
2023-03-20T18:00:36.102Z,3.63
2023-03-20T18:02:38.047Z,3.35
2023-03-20T18:04:39.529Z,3.53
2023-03-20T18:06:41.057Z,3.70
2023-03-20T18:08:42.548Z,3.70
2023-03-20T18:10:44.306Z,4.18
2023-03-20T18:12:45.990Z,4.32
2023-03-20T18:14:47.501Z,4.20
2023-03-20T18:16:49.061Z,3.80
2023-03-20T18:18:51.508Z,4.70
2023-03-20T18:20:54.727Z,4.15
2023-03-20T18:22:56.480Z,3.80
2023-03-20T18:24:57.948Z,3.80
2023-03-20T18:26:59.960Z,4.10
2023-03-20T18:29:01.416Z,4.32
2023-03-20T18:31:02.934Z,3.85
2023-03-20T18:33:05.641Z,4.38
2023-03-20T18:35:07.647Z,4.30
2023-03-20T18:37:13.986Z,4.47
2023-03-20T18:39:21.397Z,4.50
2023-03-20T18:41:23.167Z,4.95
2023-03-20T18:43:24.634Z,4.15
2023-03-20T18:45:27.972Z,4.57
2023-03-20T18:47:29.442Z,4.22
2023-03-20T18:49:31.659Z,4.47
2023-03-20T18:51:33.640Z,4.85
2023-03-20T18:53:35.210Z,4.97
2023-03-20T18:55:38.109Z,4.82
2023-03-20T18:57:43.066Z,4.28
2023-03-20T18:59:44.718Z,3.72
2023-03-20T19:01:46.313Z,4.18
2023-03-20T19:03:48.905Z,4.50
2023-03-20T19:05:55.543Z,4.47
2023-03-20T19:07:58.897Z,4.60
2023-03-20T19:10:00.376Z,4.60
2023-03-20T19:12:01.875Z,4.10
2023-03-20T19:14:03.652Z,4.88
2023-03-20T19:16:10.455Z,4.93
2023-03-20T19:18:17.006Z,4.60
2023-03-20T19:20:24.574Z,5.60
2023-03-20T19:22:29.571Z,5.57
2023-03-20T19:24:31.432Z,5.32
2023-03-20T19:26:35.235Z,4.95
2023-03-20T19:28:40.979Z,5.40
2023-03-20T19:30:42.957Z,5.22
2023-03-20T19:32:44.857Z,6.43
2023-03-20T19:35:35.342Z,5.63
2023-03-20T19:37:11.994Z,5.80
2023-03-20T19:39:15.324Z,6.03
2023-03-20T19:41:19.786Z,5.90
2023-03-20T19:43:23.234Z,6.50
2023-03-20T19:45:28.157Z,6.65
2023-03-20T19:47:29.691Z,6.20
2023-03-20T19:49:33.028Z,6.30
2023-03-20T19:51:34.648Z,6.65
2023-03-20T19:53:36.108Z,5.97
2023-03-20T19:55:38.099Z,6.18
2023-03-20T19:57:39.676Z,6.20
2023-03-20T19:59:43.913Z,6.75
2023-03-20T20:01:45.953Z,7.03
2023-03-20T20:03:49.579Z,6.88
2023-03-20T20:05:52.927Z,7.18
2023-03-20T20:08:22.572Z,7.40
2023-03-20T20:10:20.871Z,6.68
2023-03-20T20:12:22.368Z,7.15
2023-03-20T20:14:24.259Z,7.82
2023-03-20T20:16:25.741Z,7.15
2023-03-20T20:18:28.823Z,10.65
2023-03-20T20:20:34.479Z,8.02
2023-03-20T20:22:36.806Z,8.00
2023-03-20T20:24:38.277Z,7.78
2023-03-20T20:26:49.385Z,7.72
2023-03-20T20:28:54.581Z,7.82
2023-03-20T20:30:57.168Z,8.57
2023-03-20T20:33:03.487Z,8.05
2023-03-20T20:35:40.679Z,8.30
2023-03-20T20:38:19.654Z,9.77
2023-03-20T20:39:51.242Z,9.50
2023-03-20T20:41:52.725Z,8.60
2023-03-20T20:44:15.092Z,7.95
2023-03-20T20:46:15.735Z,10.15
2023-03-20T20:48:18.752Z,9.18
2023-03-20T20:50:31.729Z,9.43
2023-03-20T20:52:36.140Z,9.52
2023-03-20T20:54:37.914Z,10.50
2023-03-20T20:56:39.624Z,10.63
2023-03-20T20:58:41.154Z,11.13
2023-03-20T21:00:51.692Z,11.27
2023-03-20T21:02:54.912Z,12.48
2023-03-20T21:04:56.892Z,12.27
2023-03-20T21:07:09.308Z,12.25
2023-03-20T21:09:12.010Z,12.85
2023-03-20T21:11:14.792Z,13.13
2023-03-20T21:13:16.339Z,13.65
2023-03-20T21:15:18.318Z,13.35
2023-03-20T21:17:20.373Z,13.30
2023-03-20T21:19:21.938Z,14.90
2023-03-20T21:21:23.866Z,14.90
2023-03-20T21:23:26.014Z,15.18
2023-03-20T21:25:47.066Z,13.98
2023-03-20T21:27:49.243Z,16.08
2023-03-20T21:29:50.968Z,15.68
2023-03-20T21:31:52.912Z,15.88
2023-03-20T21:33:55.960Z,15.55
2023-03-20T21:35:57.557Z,17.23
2023-03-20T21:40:20.542Z,16.98
2023-03-20T21:42:22.009Z,16.75
2023-03-20T21:45:01.084Z,16.85
2023-03-20T21:52:31.158Z,17.50
2023-03-20T21:54:47.595Z,17.30
2023-03-20T21:56:50.564Z,18.23
2023-03-20T21:59:14.747Z,18.60
2023-03-20T22:03:34.907Z,18.52
2023-03-20T22:08:48.617Z,19.40
2023-03-20T22:13:28.466Z,19.60
2023-03-20T22:15:39.300Z,18.95
2023-03-20T22:20:33.146Z,20.05
2023-03-20T22:23:21.050Z,19.70
2023-03-20T22:39:34.081Z,20.70
2023-03-20T22:46:05.655Z,19.75
2023-03-20T22:48:13.021Z,21.55
2023-03-20T22:50:14.537Z,20.45
2023-03-20T22:52:29.145Z,21.73
2023-03-20T22:54:33.547Z,21.42
2023-03-20T22:56:35.006Z,20.92
2023-03-20T22:58:36.545Z,21.20
2023-03-20T23:00:38.452Z,20.70
2023-03-20T23:02:40.377Z,21.02
2023-03-20T23:04:41.969Z,21.27
2023-03-20T23:06:43.470Z,21.98
2023-03-20T23:08:52.075Z,21.30
2023-03-20T23:10:56.425Z,22.02
2023-03-20T23:12:58.270Z,21.63
2023-03-20T23:15:00.717Z,21.48
2023-03-20T23:17:02.285Z,21.80
2023-03-20T23:19:03.888Z,21.63
2023-03-20T23:21:05.907Z,22.60
2023-03-20T23:23:07.402Z,20.73
2023-03-20T23:25:18.637Z,20.23
2023-03-20T23:27:28.747Z,20.88
2023-03-20T23:29:30.435Z,20.73
2023-03-20T23:31:32.049Z,20.20
2023-03-20T23:33:33.682Z,20.27
2023-03-20T23:35:35.363Z,20.35
2023-03-20T23:37:37.269Z,20.67
2023-03-20T23:39:38.793Z,18.65
2023-03-20T23:44:03.679Z,19.67
2023-03-20T23:46:07.065Z,19.67
2023-03-20T23:48:08.618Z,19.77
2023-03-20T23:50:14.553Z,20.15
2023-03-20T23:54:20.718Z,19.33
2023-03-20T23:56:22.240Z,19.42
2023-03-20T23:58:26.568Z,18.55
